Time;durP1;ratioP1;P1;durP2;ratioP2;P2;SDS_P1;SDS_P2;PMS_P1;PMS_P2;Temp;Humidity;BMP_temperature;BMP_pressure;BME280_temperature;BME280_humidity;BME280_pressure;Samples;Min_cycle;Max_cycle;Signal;HPM_P1;HPM_P2
2022/08/22 00:01:58;;;;;;;1.58;1.45;;;23.30;65.50;;;;;;5030971;28;43419;-64
2022/08/22 00:05:09;;;;;;;1.50;1.40;;;23.20;65.50;;;;;;5035497;28;43386;-65
2022/08/22 00:07:59;;;;;;;1.90;1.63;;;23.20;65.50;;;;;;5038802;28;44714;-64
2022/08/22 00:10:52;;;;;;;1.60;1.20;;;23.20;65.50;;;;;;5031031;28;43566;-64
2022/08/22 00:13:31;;;;;;;1.60;1.50;;;23.20;65.60;;;;;;5039428;28;43529;-64
2022/08/22 00:16:07;;;;;;;1.80;1.70;;;23.20;65.50;;;;;;5044457;28;43519;-64
2022/08/22 00:19:11;;;;;;;1.50;1.40;;;23.20;65.60;;;;;;5032817;28;44755;-64
2022/08/22 00:21:45;;;;;;;1.63;1.50;;;23.20;65.60;;;;;;5033226;28;43442;-64
2022/08/22 00:24:15;;;;;;;1.65;1.33;;;23.20;65.60;;;;;;5041487;28;43404;-64
2022/08/22 00:27:00;;;;;;;1.63;1.50;;;23.20;65.60;;;;;;5034974;28;43602;-64
2022/08/22 00:29:46;;;;;;;2.30;1.58;;;23.20;65.60;;;;;;5051400;28;44904;-64
2022/08/22 00:32:28;;;;;;;1.50;1.40;;;23.20;65.60;;;;;;5036796;28;43529;-64
2022/08/22 00:35:22;;;;;;;1.73;1.63;;;23.20;65.60;;;;;;5039613;28;43786;-64
2022/08/22 00:38:16;;;;;;;1.60;1.50;;;23.10;65.50;;;;;;5029155;28;43464;-64
2022/08/22 00:41:33;;;;;;;1.55;1.45;;;23.20;65.60;;;;;;5037726;28;43806;-64
2022/08/22 00:44:31;;;;;;;1.42;1.33;;;23.10;65.60;;;;;;5032627;28;43679;-64
2022/08/22 00:47:20;;;;;;;1.60;1.50;;;23.10;65.60;;;;;;5028521;28;43446;-64
2022/08/22 00:49:56;;;;;;;1.67;1.58;;;23.10;65.60;;;;;;5035900;28;43507;-64
2022/08/22 00:52:38;;;;;;;1.80;1.60;;;23.10;65.70;;;;;;5039614;28;44743;-64
2022/08/22 00:55:12;;;;;;;1.60;1.50;;;23.10;65.70;;;;;;5031876;28;43433;-64
2022/08/22 00:58:03;;;;;;;1.90;1.60;;;23.10;65.70;;;;;;5035901;28;43557;-64
2022/08/22 01:00:38;;;;;;;1.63;1.52;;;23.10;65.60;;;;;;5039979;28;43483;-64
2022/08/22 01:03:17;;;;;;;1.58;1.48;;;23.10;65.70;;;;;;5035379;28;44161;-64
2022/08/22 01:06:09;;;;;;;2.00;1.63;;;23.10;65.70;;;;;;5033201;28;43552;-64
2022/08/22 01:08:48;;;;;;;1.80;1.70;;;23.10;65.70;;;;;;5032356;28;43445;-64
2022/08/22 01:12:10;;;;;;;2.53;1.60;;;23.10;65.70;;;;;;5041522;28;43494;-64
2022/08/22 01:14:51;;;;;;;1.50;1.40;;;23.10;65.70;;;;;;5005755;28;44723;-64
2022/08/22 01:17:24;;;;;;;1.83;1.73;;;23.00;65.70;;;;;;5035405;28;43499;-64
2022/08/22 01:20:04;;;;;;;1.67;1.58;;;23.00;66.30;;;;;;5038886;28;43456;-64
2022/08/22 01:22:49;;;;;;;1.50;1.40;;;23.00;65.70;;;;;;5025188;28;43432;-64
2022/08/22 01:25:54;;;;;;;1.63;1.52;;;23.00;65.70;;;;;;5032640;28;44977;-64
2022/08/22 01:28:37;;;;;;;1.50;1.40;;;23.00;65.70;;;;;;5023150;28;43743;-64
2022/08/22 01:31:44;;;;;;;1.98;1.55;;;23.00;65.70;;;;;;5030754;28;43457;-64
2022/08/22 01:34:43;;;;;;;1.67;1.58;;;23.00;65.70;;;;;;5029173;28;43531;-64
2022/08/22 01:37:28;;;;;;;1.38;1.30;;;23.00;65.70;;;;;;5032311;28;43890;-64
2022/08/22 01:40:33;;;;;;;1.55;1.45;;;23.00;65.80;;;;;;5038029;28;43988;-64
2022/08/22 01:43:07;;;;;;;1.90;1.67;;;23.00;65.70;;;;;;5031232;28;43938;-65
2022/08/22 01:45:52;;;;;;;1.73;1.63;;;22.90;65.70;;;;;;5034617;28;43432;-64
2022/08/22 01:48:29;;;;;;;2.25;1.55;;;22.90;65.70;;;;;;5030363;28;44962;-64
2022/08/22 01:51:10;;;;;;;1.63;1.35;;;22.90;65.70;;;;;;5030525;28;43445;-64
2022/08/22 01:53:44;;;;;;;;;;;22.90;65.70;;;;;;5040308;28;44151;-64
2022/08/22 01:56:16;;;;;;;1.52;1.42;;;22.90;65.70;;;;;;5039380;28;43595;-64
2022/08/22 01:59:00;;;;;;;1.63;1.50;;;22.90;65.80;;;;;;5044731;28;44967;-64
2022/08/22 02:01:46;;;;;;;1.52;1.42;;;22.90;65.80;;;;;;5029417;28;44098;-64
2022/08/22 02:04:38;;;;;;;2.25;1.45;;;22.90;65.70;;;;;;5040192;28;43502;-64
2022/08/22 02:07:18;;;;;;;1.98;1.60;;;22.90;65.70;;;;;;5039957;28;43566;-64
2022/08/22 02:10:19;;;;;;;1.92;1.60;;;22.90;65.70;;;;;;5025938;28;44134;-65
2022/08/22 02:12:52;;;;;;;1.63;1.50;;;22.90;65.70;;;;;;5036494;28;43931;-64
2022/08/22 02:15:34;;;;;;;1.92;1.50;;;22.90;65.80;;;;;;5041076;28;43449;-64
2022/08/22 02:18:15;;;;;;;1.65;1.55;;;22.90;65.70;;;;;;5033094;28;43502;-64
2022/08/22 02:21:11;;;;;;;1.77;1.40;;;22.90;65.70;;;;;;5031786;28;43867;-64
2022/08/22 02:23:58;;;;;;;1.55;1.23;;;22.90;65.80;;;;;;5035313;28;43939;-64
2022/08/22 02:26:37;;;;;;;1.75;1.65;;;22.90;65.70;;;;;;5040776;28;43387;-64
2022/08/22 02:29:29;;;;;;;1.70;1.50;;;22.80;65.70;;;;;;5038325;28;43602;-64
2022/08/22 02:32:17;;;;;;;2.72;1.80;;;22.90;65.80;;;;;;5037906;28;43867;-64
2022/08/22 02:35:15;;;;;;;1.52;1.42;;;22.80;65.70;;;;;;5038312;28;43709;-65
2022/08/22 02:38:14;;;;;;;1.63;1.52;;;22.80;65.70;;;;;;5032407;28;43412;-64
2022/08/22 02:41:19;;;;;;;2.05;1.60;;;22.80;65.70;;;;;;5037204;28;43471;-64
2022/08/22 02:44:12;;;;;;;1.77;1.67;;;22.80;65.70;;;;;;5032667;28;43817;-64
2022/08/22 02:47:14;;;;;;;1.60;1.50;;;22.80;65.70;;;;;;5026284;28;43391;-64
2022/08/22 02:50:14;;;;;;;1.88;1.50;;;22.80;65.70;;;;;;5032124;28;43442;-64
2022/08/22 02:53:10;;;;;;;1.45;1.35;;;22.80;65.80;;;;;;5034380;28;43577;-64
2022/08/22 02:55:41;;;;;;;2.15;1.30;;;22.80;65.80;;;;;;5030906;28;43791;-64
2022/08/22 02:58:23;;;;;;;1.40;1.30;;;22.80;65.80;;;;;;5033833;28;43475;-64
2022/08/22 03:01:13;;;;;;;1.63;1.50;;;22.80;65.80;;;;;;5040227;28;43541;-64
2022/08/22 03:03:44;;;;;;;1.92;1.70;;;22.80;65.80;;;;;;5026793;28;43396;-65
2022/08/22 03:06:37;;;;;;;2.17;1.48;;;22.80;65.80;;;;;;5029966;28;43745;-64
2022/08/22 03:09:07;;;;;;;1.55;1.40;;;22.80;65.80;;;;;;5034302;28;43758;-64
2022/08/22 03:11:43;;;;;;;1.75;1.65;;;22.80;65.80;;;;;;5040178;28;43464;-64
2022/08/22 03:14:23;;;;;;;1.50;1.40;;;22.80;65.80;;;;;;5039081;28;43546;-64
2022/08/22 03:16:59;;;;;;;1.60;1.50;;;22.70;65.80;;;;;;5029942;28;44069;-64
2022/08/22 03:19:49;;;;;;;1.92;1.50;;;22.80;65.80;;;;;;5037914;28;43491;-64
2022/08/22 03:22:52;;;;;;;1.98;1.58;;;22.70;65.70;;;;;;5023533;28;43401;-64
2022/08/22 03:25:32;;;;;;;1.40;1.30;;;22.80;65.80;;;;;;5032219;28;43513;-64
2022/08/22 03:28:07;;;;;;;1.65;1.55;;;22.70;65.70;;;;;;5039489;28;43903;-65
2022/08/22 03:30:59;;;;;;;1.52;1.42;;;22.70;65.70;;;;;;5032582;28;43949;-64
2022/08/22 03:33:30;;;;;;;1.90;1.50;;;22.70;65.80;;;;;;5040666;28;43573;-64
2022/08/22 03:36:04;;;;;;;1.83;1.70;;;22.70;65.70;;;;;;5038089;28;43549;-64
2022/08/22 03:38:31;;;;;;;1.48;1.33;;;22.70;65.80;;;;;;5029043;28;43911;-64
2022/08/22 03:41:26;;;;;;;1.55;1.40;;;22.70;65.80;;;;;;5028987;28;43456;-64
2022/08/22 03:44:14;;;;;;;1.50;1.40;;;22.70;65.70;;;;;;5028211;28;43404;-64
2022/08/22 03:46:54;;;;;;;1.60;1.50;;;22.70;65.70;;;;;;5032172;28;43556;-64
2022/08/22 03:49:31;;;;;;;2.17;1.52;;;22.70;65.80;;;;;;5039757;28;44990;-64
2022/08/22 03:52:02;;;;;;;1.88;1.35;;;22.70;65.70;;;;;;5031815;28;43391;-64
2022/08/22 03:54:36;;;;;;;1.55;1.45;;;22.70;65.80;;;;;;5035689;28;43569;-64
2022/08/22 03:57:18;;;;;;;1.80;1.63;;;22.70;65.80;;;;;;5038547;28;43617;-65
2022/08/22 03:59:52;;;;;;;2.35;1.48;;;22.70;65.80;;;;;;5025072;28;45285;-64
2022/08/22 04:02:38;;;;;;;1.58;1.40;;;22.70;65.80;;;;;;5033410;28;43809;-64
2022/08/22 04:05:13;;;;;;;1.58;1.48;;;22.60;65.70;;;;;;5042539;28;43434;-65
2022/08/22 04:08:07;;;;;;;1.50;1.40;;;22.60;65.70;;;;;;5025955;28;43435;-64
2022/08/22 04:11:07;;;;;;;1.42;1.33;;;22.70;65.80;;;;;;5038280;28;44723;-64
2022/08/22 04:14:15;;;;;;;1.65;1.30;;;22.60;65.70;;;;;;5042098;28;43506;-64
2022/08/22 04:16:49;;;;;;;1.60;1.40;;;22.60;65.70;;;;;;5021033;28;43970;-65
2022/08/22 04:19:52;;;;;;;1.50;1.40;;;22.60;65.70;;;;;;5007650;28;43547;-64
2022/08/22 04:22:37;;;;;;;1.50;1.40;;;22.60;65.70;;;;;;5016736;28;44658;-64
2022/08/22 04:25:18;;;;;;;1.60;1.50;;;22.60;65.70;;;;;;5019995;28;43721;-64
2022/08/22 04:27:59;;;;;;;1.20;1.10;;;22.60;65.70;;;;;;5011720;28;43465;-64
2022/08/22 04:30:37;;;;;;;1.52;1.40;;;22.60;65.70;;;;;;5018614;28;43455;-64
2022/08/22 04:33:08;;;;;;;1.80;1.70;;;22.60;65.70;;;;;;5017621;28;45667;-64
2022/08/22 04:36:09;;;;;;;1.50;1.40;;;22.60;65.70;;;;;;5014982;28;43964;-64
2022/08/22 04:38:40;;;;;;;;;;;22.60;65.70;;;;;;5019785;28;44091;-64
2022/08/22 04:41:19;;;;;;;1.42;1.20;;;22.60;65.80;;;;;;5016689;28;43523;-64
2022/08/22 04:43:59;;;;;;;1.38;1.27;;;22.50;65.70;;;;;;5022762;28;44922;-65
2022/08/22 04:46:33;;;;;;;1.07;1.07;;;22.60;65.80;;;;;;5011171;28;43724;-64
2022/08/22 04:49:18;;;;;;;1.40;1.30;;;22.60;65.70;;;;;;5011126;28;43424;-63
2022/08/22 04:51:58;;;;;;;1.55;1.45;;;22.50;65.70;;;;;;5020239;28;43527;-64
2022/08/22 04:54:28;;;;;;;1.83;1.45;;;22.60;65.70;;;;;;5020949;28;43823;-64
2022/08/22 04:57:18;;;;;;;1.40;1.30;;;22.60;65.70;;;;;;5009254;28;43405;-64
2022/08/22 04:59:48;;;;;;;1.60;1.50;;;22.60;65.70;;;;;;5016821;28;43440;-63
2022/08/22 05:02:24;;;;;;;1.42;1.33;;;22.50;65.70;;;;;;5018128;28;43407;-64
2022/08/22 05:05:02;;;;;;;1.52;1.42;;;22.50;65.70;;;;;;5011880;28;44053;-64
2022/08/22 05:07:42;;;;;;;1.20;1.20;;;22.50;65.70;;;;;;5014120;28;43515;-65
2022/08/22 05:10:18;;;;;;;1.10;1.10;;;22.50;65.70;;;;;;5015792;28;43459;-63
2022/08/22 05:12:59;;;;;;;1.52;1.20;;;22.50;65.70;;;;;;5013274;28;43471;-64
2022/08/22 05:15:29;;;;;;;;;;;22.50;65.70;;;;;;5012354;28;43839;-64
2022/08/22 05:18:03;;;;;;;1.20;1.20;;;22.50;65.70;;;;;;5027194;28;43459;-64
2022/08/22 05:20:33;;;;;;;1.35;1.25;;;22.50;65.80;;;;;;5039297;28;43475;-64
2022/08/22 05:23:24;;;;;;;1.30;1.20;;;22.50;65.70;;;;;;5032251;28;43387;-64
2022/08/22 05:25:57;;;;;;;1.17;1.17;;;22.50;65.70;;;;;;5039924;28;44092;-64
2022/08/22 05:28:44;;;;;;;1.48;1.38;;;22.50;65.70;;;;;;5041923;28;43531;-64
2022/08/22 05:31:16;;;;;;;1.17;1.15;;;22.50;65.70;;;;;;5041337;28;43433;-64
2022/08/22 05:33:55;;;;;;;1.63;1.52;;;22.50;65.70;;;;;;5039191;28;43558;-64
2022/08/22 05:36:26;;;;;;;1.23;1.13;;;22.50;65.70;;;;;;5032068;28;44964;-64
2022/08/22 05:39:01;;;;;;;1.40;1.30;;;22.50;65.70;;;;;;5040448;28;43963;-64
2022/08/22 05:41:34;;;;;;;1.48;1.30;;;22.50;65.70;;;;;;5028952;28;43499;-65
2022/08/22 05:44:03;;;;;;;1.33;1.23;;;22.50;65.70;;;;;;5036939;28;43561;-64
2022/08/22 05:46:30;;;;;;;1.15;1.05;;;22.40;65.70;;;;;;5037386;28;43805;-64
2022/08/22 05:49:02;;;;;;;1.40;1.30;;;22.40;65.60;;;;;;5041651;28;43712;-63
2022/08/22 05:51:42;;;;;;;1.13;1.05;;;22.40;65.60;;;;;;5030251;28;43514;-63
2022/08/22 05:54:20;;;;;;;1.20;1.10;;;22.40;65.70;;;;;;5037100;28;43468;-63
2022/08/22 05:57:25;;;;;;;1.15;1.05;;;22.50;65.70;;;;;;5039324;28;44335;-63
2022/08/22 06:00:07;;;;;;;1.60;1.50;;;22.40;65.60;;;;;;5023866;28;43496;-63
2022/08/22 06:03:03;;;;;;;1.73;1.27;;;22.40;65.70;;;;;;5033696;28;43605;-63
2022/08/22 06:05:35;;;;;;;1.10;1.00;;;22.40;65.60;;;;;;5040247;28;43558;-63
2022/08/22 06:08:10;;;;;;;1.20;1.10;;;22.40;65.70;;;;;;5034088;28;43805;-63
2022/08/22 06:10:48;;;;;;;0.90;0.90;;;22.40;65.70;;;;;;5030612;28;43497;-63
2022/08/22 06:13:51;;;;;;;1.20;1.10;;;22.40;65.70;;;;;;5055608;28;43424;-64
2022/08/22 06:16:44;;;;;;;1.25;1.15;;;22.40;65.60;;;;;;5042589;28;43423;-64
2022/08/22 06:19:18;;;;;;;1.80;1.30;;;22.40;65.70;;;;;;5025987;28;44908;-63
2022/08/22 06:21:49;;;;;;;1.30;1.20;;;22.40;65.70;;;;;;5032074;28;43488;-64
2022/08/22 06:24:25;;;;;;;1.20;1.10;;;22.40;65.70;;;;;;5038546;28;43514;-63
2022/08/22 06:27:02;;;;;;;1.33;1.23;;;22.40;65.70;;;;;;5037378;28;43521;-64
2022/08/22 06:29:38;;;;;;;1.17;1.10;;;22.40;65.70;;;;;;5034135;28;44962;-64
2022/08/22 06:32:43;;;;;;;1.30;1.20;;;22.40;65.70;;;;;;5034458;28;43955;-64
2022/08/22 06:38:30;;;;;;;1.90;1.30;;;22.40;65.70;;;;;;5032454;28;43548;-65
2022/08/22 06:41:01;;;;;;;2.25;1.30;;;22.40;65.70;;;;;;5034404;28;44699;-64
2022/08/22 06:43:37;;;;;;;1.38;1.27;;;22.40;65.80;;;;;;5041529;28;44018;-65
2022/08/22 06:46:06;;;;;;;1.15;1.08;;;22.40;66.40;;;;;;5030780;28;43347;-65
2022/08/22 06:48:36;;;;;;;1.40;1.30;;;22.40;65.80;;;;;;5030459;28;43465;-65
2022/08/22 06:51:07;;;;;;;1.23;1.10;;;22.40;65.80;;;;;;5035829;28;43794;-65
2022/08/22 06:53:42;;;;;;;1.23;1.13;;;22.40;65.80;;;;;;5041227;28;43518;-64
2022/08/22 06:56:22;;;;;;;1.50;1.40;;;22.40;65.70;;;;;;5029556;28;43439;-64
2022/08/22 06:58:53;;;;;;;1.23;1.13;;;22.40;65.80;;;;;;5029655;28;43406;-65
2022/08/22 07:01:26;;;;;;;1.40;1.30;;;22.40;65.80;;;;;;5036418;28;46107;-65
2022/08/22 07:03:58;;;;;;;1.50;1.40;;;22.40;65.90;;;;;;5033701;28;43558;-65
2022/08/22 07:06:32;;;;;;;1.40;1.30;;;22.40;65.90;;;;;;5030327;28;43368;-65
2022/08/22 07:09:01;;;;;;;1.30;1.20;;;22.40;65.90;;;;;;5036089;28;43411;-64
2022/08/22 07:11:42;;;;;;;1.42;1.10;;;22.40;65.90;;;;;;5039342;28;44680;-65
2022/08/22 07:14:13;;;;;;;1.38;1.27;;;22.40;66.40;;;;;;5040358;28;43612;-65
2022/08/22 07:16:41;;;;;;;1.42;1.13;;;22.40;65.70;;;;;;5033292;28;43467;-65
2022/08/22 07:19:21;;;;;;;1.50;1.40;;;22.40;65.80;;;;;;5036896;28;43534;-65
2022/08/22 07:21:49;;;;;;;1.42;1.30;;;22.40;65.90;;;;;;5038168;28;44072;-65
2022/08/22 07:24:24;;;;;;;1.58;1.45;;;22.40;65.90;;;;;;5036013;28;44274;-65
2022/08/22 07:26:58;;;;;;;1.65;1.35;;;22.40;65.90;;;;;;5035141;28;43440;-65
2022/08/22 07:29:41;;;;;;;1.27;1.17;;;22.40;65.90;;;;;;5033978;28;43514;-65
2022/08/22 07:32:40;;;;;;;2.00;1.30;;;22.40;65.90;;;;;;5037811;28;44904;-65
2022/08/22 07:35:18;;;;;;;1.30;1.20;;;22.40;66.00;;;;;;5026723;28;43761;-67
2022/08/22 07:37:58;;;;;;;2.28;1.40;;;22.40;66.00;;;;;;5033239;28;43455;-66
2022/08/22 07:40:34;;;;;;;1.48;1.38;;;22.40;65.90;;;;;;5040715;28;43676;-66
2022/08/22 07:43:06;;;;;;;1.10;1.10;;;22.40;66.00;;;;;;5044097;28;43787;-66
2022/08/22 07:45:51;;;;;;;1.30;1.20;;;22.40;66.00;;;;;;5033015;28;43767;-66
2022/08/22 07:48:50;;;;;;;1.55;1.45;;;22.40;66.10;;;;;;5039948;28;43419;-66
2022/08/22 07:51:54;;;;;;;1.33;1.23;;;22.40;66.00;;;;;;5040474;28;43507;-68
2022/08/22 07:54:22;;;;;;;1.73;1.30;;;22.40;66.00;;;;;;5044295;28;44047;-67
2022/08/22 07:57:03;;;;;;;1.30;1.20;;;22.40;66.10;;;;;;5043363;28;43373;-66
2022/08/22 07:59:35;;;;;;;2.13;1.30;;;22.30;66.00;;;;;;5039649;28;43496;-67
2022/08/22 08:02:09;;;;;;;1.10;1.10;;;22.30;66.10;;;;;;5053231;28;43467;-68
2022/08/22 08:04:39;;;;;;;1.05;1.05;;;22.30;66.00;;;;;;5036858;28;44150;-67
2022/08/22 08:07:12;;;;;;;2.15;1.23;;;22.30;66.00;;;;;;5043306;28;43983;-67
2022/08/22 08:10:03;;;;;;;1.30;1.20;;;22.40;66.00;;;;;;5037659;28;43495;-67
2022/08/22 08:12:36;;;;;;;2.22;1.45;;;22.30;66.00;;;;;;5038051;28;43492;-67
2022/08/22 08:15:10;;;;;;;1.67;1.23;;;22.30;66.00;;;;;;5041908;28;44070;-67
2022/08/22 08:17:38;;;;;;;1.75;1.27;;;22.30;66.00;;;;;;5036780;28;43927;-67
2022/08/22 08:20:12;;;;;;;1.63;1.30;;;22.30;66.00;;;;;;5038015;28;43457;-67
2022/08/22 08:22:43;;;;;;;1.52;1.42;;;22.40;66.00;;;;;;5036781;28;43562;-67
2022/08/22 08:25:20;;;;;;;1.83;1.70;;;22.40;66.20;;;;;;5038620;28;44075;-67
2022/08/22 08:30:43;;;;;;;2.50;1.70;;;22.40;66.60;;;;;;5043033;28;43384;-67
2022/08/22 08:33:16;;;;;;;2.58;1.58;;;22.40;66.70;;;;;;5037686;28;43465;-67
2022/08/22 08:36:02;;;;;;;2.22;1.55;;;22.40;66.60;;;;;;5043369;28;44715;-66
2022/08/22 08:38:54;;;;;;;2.80;1.42;;;22.40;66.60;;;;;;5041947;28;43432;-66
2022/08/22 08:41:33;;;;;;;2.50;1.38;;;22.40;66.70;;;;;;5034692;28;43461;-67
2022/08/22 08:44:08;;;;;;;3.65;1.75;;;22.40;66.80;;;;;;5042280;28;43413;-70
2022/08/22 08:46:49;;;;;;;1.65;1.55;;;22.40;66.70;;;;;;5028154;28;44696;-69
2022/08/22 08:49:45;;;;;;;4.53;1.83;;;22.40;67.00;;;;;;5042342;28;43973;-69
2022/08/22 08:52:48;;;;;;;1.60;1.50;;;22.40;66.80;;;;;;5039336;28;44003;-69
2022/08/22 08:55:36;;;;;;;3.42;1.85;;;22.40;66.70;;;;;;5024526;28;43449;-69
2022/08/22 08:58:12;;;;;;;3.45;1.77;;;22.40;66.60;;;;;;5039701;28;44036;-68
2022/08/22 09:01:24;;;;;;;3.38;1.70;;;22.40;66.70;;;;;;5035124;28;43927;-68
2022/08/22 09:04:18;;;;;;;2.47;1.75;;;22.40;66.60;;;;;;5043154;28;43450;-69
2022/08/22 09:07:15;;;;;;;3.15;1.70;;;22.40;66.60;;;;;;5029194;28;43542;-69
2022/08/22 09:09:54;;;;;;;2.50;1.77;;;22.40;66.60;;;;;;5012771;28;45015;-69
2022/08/22 09:12:37;;;;;;;2.00;1.60;;;22.40;66.70;;;;;;5038584;28;43432;-69
2022/08/22 09:15:33;;;;;;;3.25;1.83;;;22.40;66.60;;;;;;5032398;28;43523;-69
2022/08/22 09:18:29;;;;;;;3.30;1.60;;;22.40;66.60;;;;;;5032529;28;43432;-69
2022/08/22 09:21:12;;;;;;;2.97;1.70;;;22.40;66.60;;;;;;5032108;28;44129;-68
2022/08/22 09:23:58;;;;;;;2.28;1.73;;;22.40;66.60;;;;;;5030297;28;43687;-68
2022/08/22 09:26:37;;;;;;;2.72;1.80;;;22.40;66.60;;;;;;5036203;28;43406;-69
2022/08/22 09:29:38;;;;;;;3.47;1.73;;;22.50;66.50;;;;;;5041567;28;43499;-69
2022/08/22 09:32:57;;;;;;;3.42;1.95;;;22.40;66.40;;;;;;5025692;28;44105;-70
2022/08/22 09:36:01;;;;;;;3.67;1.67;;;22.50;66.40;;;;;;5038392;28;43567;-68
2022/08/22 09:38:34;;;;;;;2.17;1.63;;;22.50;66.40;;;;;;5019704;28;43452;-69
2022/08/22 09:41:12;;;;;;;3.50;2.38;;;22.40;66.20;;;;;;5041258;28;43537;-68
2022/08/22 09:44:18;;;;;;;2.70;1.70;;;22.50;66.20;;;;;;5038493;28;43800;-68
2022/08/22 09:47:04;;;;;;;2.63;1.88;;;22.50;66.10;;;;;;5035342;28;43964;-68
2022/08/22 09:49:58;;;;;;;2.58;2.20;;;22.50;66.10;;;;;;5036743;28;43448;-69
2022/08/22 09:53:05;;;;;;;2.60;2.08;;;22.50;65.90;;;;;;5013831;28;43651;-68
2022/08/22 09:55:57;;;;;;;3.95;2.15;;;22.50;65.80;;;;;;5038973;28;43780;-69
2022/08/22 09:58:48;;;;;;;2.72;2.03;;;22.50;65.90;;;;;;5032737;28;44141;-69
2022/08/22 10:01:33;;;;;;;4.47;2.22;;;22.50;65.80;;;;;;5028916;28;43431;-68
2022/08/22 10:04:25;;;;;;;4.20;2.05;;;22.50;65.50;;;;;;5038454;28;43410;-69
2022/08/22 10:07:23;;;;;;;5.78;2.33;;;22.50;65.60;;;;;;5039632;28;44972;-66
2022/08/22 10:10:09;;;;;;;3.53;1.95;;;22.50;65.40;;;;;;5025208;28;43499;-66
2022/08/22 10:13:15;;;;;;;4.75;2.10;;;22.60;66.30;;;;;;5052481;28;43865;-66
2022/08/22 10:16:01;;;;;;;3.45;1.98;;;22.60;65.70;;;;;;5021220;28;43476;-65
2022/08/22 10:18:37;;;;;;;4.35;1.90;;;22.50;65.60;;;;;;5028822;28;44083;-66
2022/08/22 10:21:45;;;;;;;3.47;2.00;;;22.60;65.70;;;;;;5028993;28;43977;-66
2022/08/22 10:24:50;;;;;;;2.30;1.65;;;22.60;65.60;;;;;;5035467;28;43376;-66
2022/08/22 10:27:53;;;;;;;3.65;2.10;;;22.60;65.70;;;;;;5034827;28;43624;-66
2022/08/22 10:30:24;;;;;;;4.50;2.47;;;22.60;65.60;;;;;;5032675;28;44167;-65
2022/08/22 10:33:07;;;;;;;3.88;2.10;;;22.60;65.70;;;;;;5038211;28;43990;-65
2022/08/22 10:35:50;;;;;;;3.60;1.90;;;22.60;65.60;;;;;;5041974;28;43455;-65
2022/08/22 10:38:31;;;;;;;4.13;2.40;;;22.60;65.60;;;;;;5030922;28;43595;-65
2022/08/22 10:41:31;;;;;;;5.07;2.13;;;22.60;65.70;;;;;;5030353;28;44682;-65
2022/08/22 10:44:16;;;;;;;3.38;2.00;;;22.70;65.70;;;;;;5040018;28;43723;-65
2022/08/22 10:46:54;;;;;;;2.53;1.80;;;22.70;65.80;;;;;;5024678;28;43372;-65
2022/08/22 10:49:32;;;;;;;2.85;1.73;;;22.70;65.80;;;;;;5030396;28;43466;-66
2022/08/22 10:52:08;;;;;;;3.35;2.00;;;22.70;65.80;;;;;;5037491;28;44186;-65
2022/08/22 10:54:56;;;;;;;4.47;2.00;;;22.70;65.80;;;;;;5022898;28;44021;-65
2022/08/22 10:57:50;;;;;;;3.25;2.00;;;22.80;65.80;;;;;;5028951;28;43444;-66
2022/08/22 11:00:58;;;;;;;3.58;1.90;;;22.80;66.00;;;;;;5031242;28;43719;-66
2022/08/22 11:03:49;;;;;;;2.33;1.80;;;22.80;65.80;;;;;;5037195;28;44684;-67
2022/08/22 11:06:26;;;;;;;2.83;1.90;;;22.80;65.70;;;;;;5023529;28;43718;-66
2022/08/22 11:09:28;;;;;;;3.05;1.77;;;22.80;65.70;;;;;;5037807;28;43461;-66
2022/08/22 11:12:24;;;;;;;2.17;1.63;;;22.90;65.70;;;;;;5042019;28;43509;-66
2022/08/22 11:15:18;;;;;;;2.10;1.67;;;22.90;65.70;;;;;;5042281;28;44710;-67
2022/08/22 11:18:26;;;;;;;2.45;1.60;;;22.90;65.80;;;;;;5042168;28;43571;-66
2022/08/22 11:21:15;;;;;;;2.90;1.85;;;22.90;65.70;;;;;;5039094;28;43399;-66
2022/08/22 11:23:51;;;;;;;1.77;1.50;;;22.90;65.60;;;;;;5039380;28;43481;-67
2022/08/22 11:26:49;;;;;;;2.15;1.55;;;23.00;65.70;;;;;;5053526;28;43818;-67
2022/08/22 11:29:44;;;;;;;1.77;1.52;;;23.00;65.60;;;;;;5041350;28;43397;-67
2022/08/22 11:32:27;;;;;;;2.47;1.80;;;23.00;65.60;;;;;;5041455;28;43371;-66
2022/08/22 11:35:23;;;;;;;2.40;2.03;;;23.10;65.60;;;;;;5042658;28;43593;-67
2022/08/22 11:38:02;;;;;;;2.40;1.90;;;23.10;65.50;;;;;;5042119;28;44697;-66
2022/08/22 11:40:52;;;;;;;2.85;1.80;;;23.20;65.60;;;;;;5039049;28;43491;-66
2022/08/22 11:43:38;;;;;;;2.10;1.65;;;23.20;65.50;;;;;;5038625;28;43606;-65
2022/08/22 11:46:26;;;;;;;2.00;1.48;;;23.20;65.50;;;;;;5039811;28;43483;-65
2022/08/22 11:49:11;;;;;;;2.28;1.63;;;23.30;65.50;;;;;;5042394;28;44250;-66
2022/08/22 11:52:20;;;;;;;2.55;1.52;;;23.20;65.40;;;;;;5043579;28;43399;-66
2022/08/22 11:55:07;;;;;;;2.13;1.70;;;23.30;65.40;;;;;;4992956;28;43537;-66
2022/08/22 11:57:45;;;;;;;1.92;1.70;;;23.30;65.30;;;;;;4998125;28;43520;-66
2022/08/22 12:00:31;;;;;;;2.83;1.70;;;23.30;65.30;;;;;;5013066;28;43918;-66
2022/08/22 12:03:33;;;;;;;1.92;1.40;;;23.40;65.30;;;;;;5038827;28;44389;-65
2022/08/22 12:06:18;;;;;;;2.00;1.70;;;23.40;65.20;;;;;;5042845;28;43416;-66
2022/08/22 12:08:49;;;;;;;3.10;1.70;;;23.40;65.20;;;;;;5044230;28;44003;-66
2022/08/22 12:11:31;;;;;;;3.92;2.42;;;23.40;65.20;;;;;;5028533;28;44995;-65
2022/08/22 12:14:04;;;;;;;2.03;1.52;;;23.40;65.30;;;;;;5042001;28;43704;-65
2022/08/22 12:16:51;;;;;;;3.08;2.00;;;23.40;65.10;;;;;;5041981;28;43547;-65
2022/08/22 12:19:45;;;;;;;2.20;1.73;;;23.50;65.00;;;;;;5027394;28;43419;-65
2022/08/22 12:22:42;;;;;;;4.10;2.00;;;23.50;65.00;;;;;;5039667;28;43820;-65
2022/08/22 12:25:28;;;;;;;2.13;1.73;;;23.50;65.00;;;;;;5039726;28;45096;-65
2022/08/22 12:28:29;;;;;;;4.07;1.88;;;23.50;65.00;;;;;;5043551;28;43391;-65
2022/08/22 12:31:20;;;;;;;3.65;1.75;;;23.50;65.00;;;;;;5030893;28;43481;-65
2022/08/22 12:34:03;;;;;;;2.53;1.90;;;23.60;65.00;;;;;;5034987;28;44952;-65
2022/08/22 12:36:55;;;;;;;2.05;1.70;;;23.60;65.00;;;;;;5042121;28;43966;-66
2022/08/22 12:39:25;;;;;;;;;;;23.60;65.70;;;;;;5041308;28;43498;-66
2022/08/22 12:42:23;;;;;;;2.35;1.58;;;23.60;64.90;;;;;;5039106;28;43417;-66
2022/08/22 12:44:53;;;;;;;2.67;1.73;;;23.60;64.90;;;;;;5037520;28;43881;-67
2022/08/22 12:47:58;;;;;;;2.30;1.50;;;23.70;64.90;;;;;;5035881;28;43723;-66
2022/08/22 12:50:50;;;;;;;2.53;1.85;;;23.70;64.90;;;;;;5040965;28;43473;-66
2022/08/22 12:53:57;;;;;;;2.60;1.90;;;23.80;64.80;;;;;;5032806;28;43538;-66
2022/08/22 12:56:51;;;;;;;2.03;1.70;;;23.80;64.90;;;;;;5025727;28;45022;-66
2022/08/22 12:59:19;;;;;;;2.70;1.75;;;23.80;64.60;;;;;;5034345;28;43459;-66
2022/08/22 13:01:49;;;;;;;2.22;1.90;;;23.80;64.60;;;;;;5040294;28;43470;-66
2022/08/22 13:04:22;;;;;;;2.70;1.50;;;23.80;64.70;;;;;;5042102;28;43424;-66
2022/08/22 13:07:06;;;;;;;2.97;1.60;;;23.80;64.70;;;;;;5034647;28;44742;-66
2022/08/22 13:09:39;;;;;;;2.85;1.67;;;23.80;64.80;;;;;;5037750;28;43671;-66
2022/08/22 13:12:33;;;;;;;2.42;2.08;;;23.80;64.80;;;;;;5041466;28;43448;-66
2022/08/22 13:15:09;;;;;;;2.50;1.75;;;23.80;64.80;;;;;;5032852;28;43436;-66
2022/08/22 13:17:37;;;;;;;2.65;1.85;;;23.80;65.50;;;;;;5035607;28;43966;-66
2022/08/22 13:20:25;;;;;;;2.10;1.60;;;23.80;64.70;;;;;;5036096;28;43976;-66
2022/08/22 13:22:53;;;;;;;2.03;1.58;;;23.80;64.70;;;;;;5032903;28;43524;-66
2022/08/22 13:25:28;;;;;;;3.03;1.45;;;23.80;65.00;;;;;;5031566;28;43483;-66
2022/08/22 13:28:01;;;;;;;3.58;1.88;;;23.90;64.90;;;;;;5041871;28;44057;-66
2022/08/22 13:30:34;;;;;;;1.85;1.50;;;23.90;64.80;;;;;;5042670;28;44128;-66
2022/08/22 13:33:22;;;;;;;1.98;1.77;;;23.90;64.80;;;;;;5030828;28;43514;-66
2022/08/22 13:35:59;;;;;;;2.75;1.95;;;23.90;64.90;;;;;;5029964;28;43434;-66
2022/08/22 13:38:38;;;;;;;3.15;1.55;;;23.90;64.90;;;;;;5039696;28;43811;-66
2022/08/22 13:41:25;;;;;;;2.50;1.60;;;23.90;64.90;;;;;;5041579;28;43704;-66
2022/08/22 13:44:07;;;;;;;2.03;1.58;;;23.90;64.80;;;;;;5029097;28;43491;-66
2022/08/22 13:46:36;;;;;;;2.47;1.50;;;23.90;64.90;;;;;;5037819;28;43463;-67
2022/08/22 13:49:39;;;;;;;2.05;1.58;;;23.90;64.90;;;;;;5037942;28;44664;-66
2022/08/22 13:52:33;;;;;;;2.05;1.60;;;24.00;64.90;;;;;;5030761;28;43523;-66
2022/08/22 13:55:16;;;;;;;1.80;1.63;;;23.90;64.90;;;;;;5035549;28;43407;-66
2022/08/22 13:57:58;;;;;;;1.73;1.60;;;23.90;64.90;;;;;;5040180;28;43408;-66
2022/08/22 14:00:57;;;;;;;4.30;1.92;;;23.90;64.90;;;;;;5030708;28;44620;-66
2022/08/22 14:03:35;;;;;;;2.47;1.52;;;24.00;65.10;;;;;;5023383;28;44023;-66
2022/08/22 14:06:30;;;;;;;1.75;1.60;;;23.90;64.80;;;;;;5032743;28;43404;-66
2022/08/22 14:09:30;;;;;;;3.05;1.75;;;23.90;64.70;;;;;;5028683;28;43481;-66
2022/08/22 14:12:22;;;;;;;1.67;1.52;;;23.90;65.00;;;;;;5031903;28;44976;-66
2022/08/22 14:14:56;;;;;;;;;;;23.90;64.90;;;;;;5039019;28;43699;-66
2022/08/22 14:17:38;;;;;;;1.83;1.50;;;23.90;65.10;;;;;;5022355;28;43384;-67
2022/08/22 14:20:25;;;;;;;1.58;1.20;;;23.90;65.20;;;;;;5037103;28;43492;-67
2022/08/22 14:23:28;;;;;;;1.88;1.48;;;23.90;65.20;;;;;;5038414;28;44962;-67